createdAt,value
2023-04-23T00:02:16.694Z,17.20
2023-04-23T00:04:49.347Z,17.38
2023-04-23T00:07:15.998Z,17.15
2023-04-23T00:09:43.368Z,16.38
2023-04-23T00:12:09.948Z,15.63
2023-04-23T00:14:36.504Z,15.00
2023-04-23T00:17:02.886Z,15.35
2023-04-23T00:19:29.712Z,15.85
2023-04-23T00:21:56.189Z,14.80
2023-04-23T00:24:22.570Z,14.40
2023-04-23T00:26:48.922Z,16.35
2023-04-23T00:29:15.364Z,14.20
2023-04-23T00:31:41.701Z,17.25
2023-04-23T00:34:08.089Z,15.88
2023-04-23T00:36:34.500Z,17.60
2023-04-23T00:39:00.867Z,14.57
2023-04-23T00:41:27.468Z,16.52
2023-04-23T00:43:54.270Z,16.20
2023-04-23T00:46:21.014Z,16.05
2023-04-23T00:48:47.952Z,13.97
2023-04-23T00:51:16.002Z,15.90
2023-04-23T00:53:42.391Z,16.77
2023-04-23T00:56:09.353Z,15.30
2023-04-23T00:58:36.302Z,16.42
2023-04-23T01:01:02.714Z,17.67
2023-04-23T01:03:29.440Z,14.88
2023-04-23T01:05:56.333Z,14.75
2023-04-23T01:08:23.385Z,13.70
2023-04-23T01:10:49.743Z,13.07
2023-04-23T01:13:16.508Z,13.77
2023-04-23T01:15:44.141Z,11.07
2023-04-23T01:18:10.735Z,13.75
2023-04-23T01:20:37.525Z,16.33
2023-04-23T01:23:04.091Z,17.70
2023-04-23T01:25:30.473Z,17.60
2023-04-23T01:27:57.577Z,19.13
2023-04-23T01:30:25.434Z,18.30
2023-04-23T01:32:51.940Z,17.75
2023-04-23T01:35:18.465Z,18.08
2023-04-23T01:37:44.980Z,15.53
2023-04-23T01:40:11.545Z,16.27
2023-04-23T01:42:38.607Z,15.30
2023-04-23T01:45:05.181Z,16.40
2023-04-23T01:47:31.676Z,17.05
2023-04-23T01:49:58.134Z,17.13
2023-04-23T01:52:24.485Z,16.33
2023-04-23T01:54:51.262Z,15.45
2023-04-23T01:57:17.785Z,16.02
2023-04-23T01:59:44.252Z,15.88
2023-04-23T02:02:10.639Z,16.40
2023-04-23T02:04:39.254Z,12.77
2023-04-23T02:07:05.807Z,11.50
2023-04-23T02:09:32.170Z,12.20
2023-04-23T02:11:58.606Z,12.35
2023-04-23T02:14:24.976Z,11.93
2023-04-23T02:16:51.341Z,13.55
2023-04-23T02:19:17.913Z,11.63
2023-04-23T02:21:44.274Z,12.18
2023-04-23T02:24:10.768Z,12.75
2023-04-23T02:26:37.236Z,13.07
2023-04-23T02:29:03.625Z,11.80
2023-04-23T02:31:30.041Z,12.88
2023-04-23T02:33:56.468Z,12.93
2023-04-23T02:36:22.855Z,16.30
2023-04-23T02:38:49.214Z,15.67
2023-04-23T02:41:15.616Z,15.95
2023-04-23T02:43:42.001Z,16.45
2023-04-23T02:46:08.661Z,14.60
2023-04-23T02:48:39.595Z,14.43
2023-04-23T02:51:06.335Z,14.57
2023-04-23T02:53:32.920Z,15.48
2023-04-23T02:55:59.423Z,15.20
2023-04-23T02:58:25.961Z,14.48
2023-04-23T03:00:52.444Z,15.88
2023-04-23T03:03:18.936Z,16.60
2023-04-23T03:05:45.465Z,15.25
2023-04-23T03:08:11.865Z,15.43
2023-04-23T03:10:38.260Z,16.35
2023-04-23T03:13:04.672Z,18.27
2023-04-23T03:15:31.066Z,16.13
2023-04-23T03:17:57.512Z,17.30
2023-04-23T03:20:23.870Z,19.90
2023-04-23T03:22:50.225Z,20.67
2023-04-23T03:25:16.628Z,22.02
2023-04-23T03:27:42.984Z,23.43
2023-04-23T03:30:09.563Z,23.55
2023-04-23T03:32:36.450Z,22.98
2023-04-23T03:35:02.882Z,24.70
2023-04-23T03:37:29.356Z,25.80
2023-04-23T03:39:55.790Z,23.50
2023-04-23T03:42:22.126Z,22.38
2023-04-23T03:44:48.480Z,22.98
2023-04-23T03:47:14.862Z,23.83
2023-04-23T03:49:41.199Z,24.35
2023-04-23T03:52:07.550Z,22.07
2023-04-23T03:54:33.921Z,23.25
2023-04-23T03:57:00.260Z,24.48
2023-04-23T03:59:26.749Z,21.15
2023-04-23T04:01:53.334Z,22.08
2023-04-23T04:04:20.134Z,23.33
2023-04-23T04:06:46.916Z,21.50
2023-04-23T04:09:13.473Z,23.92
2023-04-23T04:11:39.943Z,23.40
2023-04-23T04:14:06.490Z,23.75
2023-04-23T04:16:33.170Z,23.67
2023-04-23T04:18:59.805Z,23.80
2023-04-23T04:21:26.297Z,23.55
2023-04-23T04:23:53.053Z,24.77
2023-04-23T04:26:19.526Z,25.20
2023-04-23T04:28:45.992Z,24.07
2023-04-23T04:31:14.093Z,24.60
2023-04-23T04:33:40.623Z,24.52
2023-04-23T04:36:07.490Z,22.55
2023-04-23T04:38:34.025Z,23.63
2023-04-23T04:41:00.997Z,20.93
2023-04-23T04:43:27.477Z,23.75
2023-04-23T04:45:54.045Z,24.20
2023-04-23T04:48:20.610Z,23.92
2023-04-23T04:50:47.204Z,23.02
2023-04-23T04:53:13.721Z,24.00
2023-04-23T04:55:40.565Z,22.45
2023-04-23T04:58:07.190Z,23.75
2023-04-23T05:00:33.795Z,25.35
2023-04-23T05:03:00.589Z,22.50
2023-04-23T05:05:27.658Z,24.60
2023-04-23T05:07:54.797Z,22.63
2023-04-23T05:10:21.830Z,23.33
2023-04-23T05:12:48.254Z,23.45
2023-04-23T05:15:14.868Z,22.90
2023-04-23T05:17:41.582Z,24.40
2023-04-23T05:20:08.809Z,25.25
2023-04-23T05:22:35.339Z,25.20
2023-04-23T05:25:01.802Z,26.75
2023-04-23T05:27:28.301Z,25.85
2023-04-23T05:29:54.848Z,24.53
2023-04-23T05:32:21.503Z,25.92
2023-04-23T05:34:48.009Z,25.13
2023-04-23T05:37:14.565Z,22.63
2023-04-23T05:39:42.258Z,20.65
2023-04-23T05:42:09.729Z,21.43
2023-04-23T05:44:36.244Z,21.40
2023-04-23T05:47:02.737Z,20.80
2023-04-23T05:49:29.186Z,17.63
2023-04-23T05:51:55.993Z,19.90
2023-04-23T05:54:22.650Z,14.73
2023-04-23T05:56:49.054Z,15.07
2023-04-23T05:59:15.554Z,20.45
2023-04-23T06:01:42.227Z,18.88
2023-04-23T06:04:08.994Z,14.73
2023-04-23T06:06:35.617Z,14.50
2023-04-23T06:09:02.121Z,17.17
2023-04-23T06:11:28.508Z,14.60
2023-04-23T06:13:54.885Z,14.20
2023-04-23T06:16:21.329Z,14.85
2023-04-23T06:18:47.810Z,14.57
2023-04-23T06:21:14.362Z,14.38
2023-04-23T06:23:40.816Z,13.57
2023-04-23T06:26:07.192Z,11.07
2023-04-23T06:28:33.786Z,10.02
2023-04-23T06:31:00.294Z,9.33
2023-04-23T06:33:26.811Z,10.07
2023-04-23T06:35:53.391Z,11.30
2023-04-23T06:38:19.867Z,10.93
2023-04-23T06:40:46.208Z,10.23
2023-04-23T06:43:12.763Z,8.30
2023-04-23T06:45:39.134Z,9.65
2023-04-23T06:48:05.703Z,10.13
2023-04-23T06:50:32.360Z,9.82
2023-04-23T06:52:58.740Z,12.55
2023-04-23T06:55:25.370Z,11.60
2023-04-23T06:57:55.964Z,9.88
2023-04-23T07:00:23.645Z,9.82
2023-04-23T07:02:50.309Z,9.15
2023-04-23T07:05:17.927Z,10.00
2023-04-23T07:07:44.586Z,9.30
2023-04-23T07:10:12.112Z,8.32
2023-04-23T07:12:39.589Z,9.60
2023-04-23T07:15:07.025Z,8.60
2023-04-23T07:17:33.886Z,8.90
2023-04-23T07:20:00.425Z,8.23
2023-04-23T07:22:27.781Z,8.75
2023-04-23T07:24:56.106Z,9.32
2023-04-23T07:27:22.769Z,8.73
2023-04-23T07:29:49.244Z,6.22
2023-04-23T07:32:15.766Z,9.17
2023-04-23T07:34:42.933Z,8.60
2023-04-23T07:37:09.744Z,7.78
2023-04-23T07:39:36.301Z,7.43
2023-04-23T07:42:02.873Z,8.35
2023-04-23T07:44:29.413Z,8.30
2023-04-23T07:46:55.901Z,7.65
2023-04-23T07:49:22.393Z,8.15
2023-04-23T07:51:48.905Z,7.20
2023-04-23T07:54:15.530Z,7.00
2023-04-23T07:56:43.210Z,7.53
2023-04-23T07:59:10.108Z,8.32
2023-04-23T08:01:36.696Z,7.70
2023-04-23T08:04:03.401Z,6.63
2023-04-23T08:06:30.161Z,7.15
2023-04-23T08:08:57.368Z,6.60
2023-04-23T08:11:23.997Z,7.53
2023-04-23T08:13:50.498Z,6.90
2023-04-23T08:16:17.011Z,7.60
2023-04-23T08:18:50.932Z,6.85
2023-04-23T08:21:24.608Z,7.00
2023-04-23T08:23:51.206Z,6.40
2023-04-23T08:26:17.910Z,6.82
2023-04-23T08:28:46.756Z,7.25
2023-04-23T08:31:25.663Z,8.30
2023-04-23T08:33:53.767Z,8.60
2023-04-23T08:36:20.382Z,8.25
2023-04-23T08:38:46.838Z,8.82
2023-04-23T08:41:15.197Z,8.18
2023-04-23T08:43:45.034Z,8.57
2023-04-23T08:46:12.372Z,7.17
2023-04-23T08:48:39.925Z,7.38
2023-04-23T08:51:07.446Z,9.00
2023-04-23T08:53:34.797Z,8.77
2023-04-23T08:56:02.848Z,8.27
2023-04-23T08:58:30.177Z,7.50
2023-04-23T09:00:57.508Z,6.97
2023-04-23T09:03:25.135Z,8.52
2023-04-23T09:05:51.901Z,9.20
2023-04-23T09:08:20.683Z,8.73
2023-04-23T09:10:47.186Z,8.97
2023-04-23T09:13:14.450Z,15.88
2023-04-23T09:15:41.415Z,8.65
2023-04-23T09:18:07.982Z,8.20
2023-04-23T09:20:34.595Z,7.90
2023-04-23T09:23:01.372Z,7.00
2023-04-23T09:25:27.839Z,7.25
2023-04-23T09:27:54.338Z,7.20
2023-04-23T09:30:21.013Z,8.25
2023-04-23T09:32:47.988Z,7.90
2023-04-23T09:35:18.011Z,7.37
2023-04-23T09:37:49.429Z,8.52
2023-04-23T09:40:17.646Z,9.27
2023-04-23T09:42:51.342Z,7.38
2023-04-23T09:45:18.031Z,8.35
2023-04-23T09:47:55.598Z,6.50
2023-04-23T09:50:39.574Z,6.75
2023-04-23T09:53:08.986Z,7.05
2023-04-23T09:55:40.050Z,6.85
2023-04-23T09:58:11.437Z,6.07
2023-04-23T10:00:39.832Z,5.87
2023-04-23T10:03:07.704Z,6.40
2023-04-23T10:08:08.236Z,6.22
2023-04-23T10:10:40.608Z,5.90
2023-04-23T10:13:20.126Z,5.23
2023-04-23T10:15:47.647Z,5.15
2023-04-23T10:18:17.385Z,5.05
2023-04-23T10:20:43.812Z,7.60
2023-04-23T10:23:11.507Z,5.70
2023-04-23T10:25:39.063Z,5.27
2023-04-23T10:28:06.298Z,13.88
2023-04-23T10:30:32.906Z,7.22
2023-04-23T10:33:00.560Z,5.40
2023-04-23T10:35:27.116Z,7.30
2023-04-23T10:37:53.718Z,5.20
2023-04-23T10:40:30.747Z,7.90
2023-04-23T10:42:57.359Z,4.85
2023-04-23T10:45:25.631Z,5.68
2023-04-23T10:47:53.607Z,5.90
2023-04-23T10:50:20.184Z,5.53
2023-04-23T10:52:46.588Z,5.53
2023-04-23T10:55:17.077Z,4.85
2023-04-23T10:57:55.656Z,5.28
2023-04-23T11:00:22.175Z,6.25
2023-04-23T11:02:50.874Z,6.57
2023-04-23T11:05:17.400Z,5.55
2023-04-23T11:08:11.108Z,5.88
2023-04-23T11:10:51.584Z,5.63
2023-04-23T11:13:22.301Z,5.40
2023-04-23T11:15:48.717Z,5.40
2023-04-23T11:18:15.138Z,4.90
2023-04-23T11:20:41.565Z,6.63
2023-04-23T11:23:08.028Z,5.20
2023-04-23T11:25:35.548Z,6.00
2023-04-23T11:28:02.838Z,5.17
2023-04-23T11:30:29.872Z,5.35
2023-04-23T11:32:57.136Z,4.90
2023-04-23T11:35:24.305Z,7.05
2023-04-23T11:37:50.898Z,6.60
2023-04-23T11:40:17.742Z,4.87
2023-04-23T11:42:44.800Z,6.00
2023-04-23T11:45:17.035Z,5.65
2023-04-23T11:47:43.772Z,6.38
2023-04-23T11:50:10.465Z,7.43
2023-04-23T11:52:39.122Z,8.27
2023-04-23T11:55:06.398Z,7.80
2023-04-23T11:57:36.695Z,7.03
2023-04-23T12:00:13.187Z,7.55
2023-04-23T12:02:49.909Z,6.85
2023-04-23T12:05:16.980Z,5.63
2023-04-23T12:07:43.362Z,6.53
2023-04-23T12:10:10.009Z,6.53
2023-04-23T12:12:36.410Z,6.15
2023-04-23T12:15:03.772Z,5.53
2023-04-23T12:17:30.310Z,12.43
2023-04-23T12:19:56.683Z,10.50
2023-04-23T12:22:28.823Z,8.88
2023-04-23T12:24:55.963Z,8.73
2023-04-23T12:27:22.442Z,10.95
2023-04-23T12:29:49.292Z,8.97
2023-04-23T12:32:15.794Z,12.02
2023-04-23T12:34:51.889Z,11.38
2023-04-23T12:37:18.411Z,5.25
2023-04-23T12:39:44.892Z,5.22
2023-04-23T12:42:11.320Z,4.93
2023-04-23T12:44:38.440Z,6.72
2023-04-23T12:47:06.062Z,7.32
2023-04-23T12:49:33.203Z,10.30
2023-04-23T12:52:00.438Z,6.55
2023-04-23T12:54:27.747Z,6.10
2023-04-23T12:56:54.101Z,5.90
2023-04-23T12:59:22.161Z,6.10
2023-04-23T13:01:48.594Z,5.15
2023-04-23T13:04:15.016Z,5.72
2023-04-23T13:06:41.586Z,4.90
2023-04-23T13:09:08.049Z,6.03
2023-04-23T13:11:34.410Z,5.95
2023-04-23T13:14:01.169Z,5.25
2023-04-23T13:16:27.617Z,5.93
2023-04-23T13:18:54.626Z,4.73
2023-04-23T13:21:21.061Z,4.68
2023-04-23T13:23:47.420Z,5.07
2023-04-23T13:26:14.286Z,5.28
2023-04-23T13:28:40.708Z,5.80
2023-04-23T13:31:07.300Z,5.07
2023-04-23T13:33:33.935Z,4.47
2023-04-23T13:36:02.145Z,4.32
2023-04-23T13:38:28.752Z,4.93
2023-04-23T13:40:55.091Z,4.70
2023-04-23T13:43:21.614Z,5.00
2023-04-23T13:45:48.031Z,4.97
2023-04-23T13:48:15.121Z,4.95
2023-04-23T13:50:42.008Z,4.72
2023-04-23T13:53:09.337Z,4.40
2023-04-23T13:55:36.136Z,4.60
2023-04-23T13:58:03.497Z,4.57
2023-04-23T14:00:29.937Z,4.97
2023-04-23T14:02:56.640Z,5.35
2023-04-23T14:05:23.328Z,5.10
2023-04-23T14:07:50.237Z,4.90
2023-04-23T14:10:16.711Z,5.10
2023-04-23T14:12:44.109Z,4.88
2023-04-23T14:15:10.610Z,4.53
2023-04-23T14:17:37.275Z,5.10
2023-04-23T14:20:03.875Z,4.80
2023-04-23T14:22:30.302Z,4.72
2023-04-23T14:24:57.446Z,5.47
2023-04-23T14:27:23.863Z,4.43
2023-04-23T14:29:56.987Z,4.60
2023-04-23T14:32:23.471Z,4.10
2023-04-23T14:34:50.704Z,3.95
2023-04-23T14:37:17.204Z,4.30
2023-04-23T14:39:43.721Z,4.30
2023-04-23T14:42:10.246Z,4.70
2023-04-23T14:44:36.599Z,5.47
2023-04-23T14:47:02.963Z,4.38
2023-04-23T14:49:29.475Z,4.28
2023-04-23T14:51:55.976Z,4.10
2023-04-23T14:54:22.568Z,4.70
2023-04-23T14:56:50.156Z,3.93
2023-04-23T14:59:16.554Z,4.30
2023-04-23T15:01:43.193Z,4.10
2023-04-23T15:04:10.429Z,4.30
2023-04-23T15:06:37.136Z,4.40
2023-04-23T15:09:03.950Z,4.27
2023-04-23T15:11:30.440Z,4.38
2023-04-23T15:14:06.338Z,4.28
2023-04-23T15:16:46.545Z,3.88
2023-04-23T15:19:13.613Z,3.80
2023-04-23T15:21:40.054Z,3.93
2023-04-23T15:24:06.434Z,3.83
2023-04-23T15:26:32.959Z,4.05
2023-04-23T15:28:59.389Z,4.03
2023-04-23T15:31:26.006Z,4.05
2023-04-23T15:33:52.461Z,3.87
2023-04-23T15:36:18.815Z,3.80
2023-04-23T15:38:45.159Z,4.38
2023-04-23T15:41:11.801Z,4.10
2023-04-23T15:43:38.173Z,4.50
2023-04-23T15:46:04.585Z,3.97
2023-04-23T15:48:31.128Z,3.92
2023-04-23T15:50:57.493Z,4.10
2023-04-23T15:53:24.802Z,3.65
2023-04-23T15:55:51.886Z,4.40
2023-04-23T15:58:18.559Z,4.10
2023-04-23T16:00:45.069Z,4.88
2023-04-23T16:03:12.097Z,6.00
2023-04-23T16:05:38.585Z,5.97
2023-04-23T16:08:04.960Z,6.95
2023-04-23T16:10:31.428Z,5.27
2023-04-23T16:12:57.799Z,6.00
2023-04-23T16:15:25.039Z,6.50
2023-04-23T16:17:51.446Z,6.10
2023-04-23T16:20:18.119Z,6.55
2023-04-23T16:22:44.461Z,7.10
2023-04-23T16:25:10.961Z,7.47
2023-04-23T16:27:37.375Z,7.82
2023-04-23T16:30:03.956Z,7.95
2023-04-23T16:32:30.458Z,9.02
2023-04-23T16:34:56.824Z,8.30
2023-04-23T16:37:23.460Z,9.02
2023-04-23T16:39:49.943Z,8.82
2023-04-23T16:42:16.293Z,9.90
2023-04-23T16:44:43.038Z,9.60
2023-04-23T16:47:09.830Z,9.43
2023-04-23T16:49:36.254Z,10.98
2023-04-23T16:52:02.619Z,26.88
2023-04-23T16:54:29.775Z,28.60
2023-04-23T16:56:56.362Z,15.63
2023-04-23T16:59:22.715Z,12.57
2023-04-23T17:01:49.158Z,13.77
2023-04-23T17:04:15.709Z,15.60
2023-04-23T17:06:42.244Z,23.05
2023-04-23T17:09:08.656Z,12.65
2023-04-23T17:11:35.054Z,11.40
2023-04-23T17:14:01.431Z,12.98
2023-04-23T17:16:27.895Z,14.93
2023-04-23T17:18:54.729Z,15.65
2023-04-23T17:21:21.098Z,12.95
2023-04-23T17:23:47.527Z,15.23
2023-04-23T17:26:13.910Z,13.60
2023-04-23T17:28:40.301Z,10.75
2023-04-23T17:31:07.278Z,15.55
2023-04-23T17:33:33.761Z,15.27
2023-04-23T17:36:00.205Z,14.07
2023-04-23T17:38:26.855Z,13.27
2023-04-23T17:40:53.281Z,14.70
2023-04-23T17:43:19.802Z,21.17
2023-04-23T17:45:46.359Z,29.25
2023-04-23T17:48:13.156Z,32.93
2023-04-23T17:50:39.524Z,21.40
2023-04-23T17:53:05.985Z,16.13
2023-04-23T17:55:32.488Z,16.45
2023-04-23T17:58:01.778Z,13.68
2023-04-23T18:00:28.239Z,16.40
2023-04-23T18:02:54.752Z,16.35
2023-04-23T18:05:21.257Z,19.52
2023-04-23T18:07:47.726Z,17.50
2023-04-23T18:10:14.129Z,15.85
2023-04-23T18:12:40.551Z,15.70
2023-04-23T18:15:07.525Z,15.60
2023-04-23T18:17:33.950Z,17.17
2023-04-23T18:20:00.340Z,15.82
2023-04-23T18:22:26.728Z,17.48
2023-04-23T18:24:53.102Z,16.57
2023-04-23T18:27:19.466Z,21.75
2023-04-23T18:29:46.356Z,27.17
2023-04-23T18:32:20.964Z,30.73
2023-04-23T18:34:50.674Z,21.98
2023-04-23T18:37:31.775Z,20.87
2023-04-23T18:39:58.284Z,27.70
2023-04-23T18:42:24.627Z,28.60
2023-04-23T18:44:51.000Z,20.88
2023-04-23T18:47:18.208Z,23.67
2023-04-23T18:49:46.006Z,27.27
2023-04-23T18:52:12.590Z,22.85
2023-04-23T18:54:39.285Z,19.23
2023-04-23T18:57:05.644Z,25.55
2023-04-23T18:59:32.013Z,34.25
2023-04-23T19:01:58.876Z,15.97
2023-04-23T19:04:25.479Z,14.63
2023-04-23T19:06:51.940Z,17.02
2023-04-23T19:09:18.311Z,47.22
2023-04-23T19:11:44.660Z,38.22
2023-04-23T19:14:11.016Z,21.87
2023-04-23T19:16:37.508Z,14.43
2023-04-23T19:19:03.930Z,13.15
2023-04-23T19:21:30.291Z,11.70
2023-04-23T19:23:56.767Z,12.48
2023-04-23T19:26:23.154Z,15.67
2023-04-23T19:28:49.529Z,13.48
2023-04-23T19:31:15.950Z,9.60
2023-04-23T19:33:42.316Z,12.75
2023-04-23T19:36:08.671Z,12.75
2023-04-23T19:38:35.148Z,14.27
2023-04-23T19:41:01.542Z,12.50
2023-04-23T19:43:28.148Z,11.57
2023-04-23T19:45:54.707Z,12.55
2023-04-23T19:48:21.105Z,12.07
2023-04-23T19:50:47.462Z,10.53
2023-04-23T19:53:13.894Z,12.48
2023-04-23T19:55:40.381Z,14.35
2023-04-23T19:58:06.811Z,14.38
2023-04-23T20:00:33.578Z,15.63
2023-04-23T20:03:00.078Z,17.20
2023-04-23T20:05:26.524Z,19.90
2023-04-23T20:07:52.945Z,19.77
2023-04-23T20:10:19.276Z,20.00
2023-04-23T20:12:46.001Z,13.52
2023-04-23T20:15:12.403Z,13.47
2023-04-23T20:17:38.788Z,12.00
2023-04-23T20:20:05.486Z,12.65
2023-04-23T20:22:33.027Z,12.02
2023-04-23T20:24:59.394Z,11.35
2023-04-23T20:27:25.765Z,7.83
2023-04-23T20:29:52.479Z,8.88
2023-04-23T20:32:18.837Z,11.30
2023-04-23T20:34:45.187Z,12.98
2023-04-23T20:37:11.853Z,9.35
2023-04-23T20:39:38.244Z,10.07
2023-04-23T20:42:05.223Z,12.00
2023-04-23T20:44:31.758Z,14.55
2023-04-23T20:46:58.133Z,14.82
2023-04-23T20:49:24.519Z,14.68
2023-04-23T20:51:51.874Z,14.73
2023-04-23T20:54:19.326Z,8.70
2023-04-23T20:56:45.672Z,13.40
2023-04-23T20:59:12.127Z,14.10
2023-04-23T21:01:38.544Z,16.27
2023-04-23T21:04:05.163Z,15.93
2023-04-23T21:06:31.818Z,13.55
2023-04-23T21:08:58.275Z,8.93
2023-04-23T21:11:24.994Z,11.45
2023-04-23T21:13:51.521Z,12.38
2023-04-23T21:16:18.051Z,11.00
2023-04-23T21:18:44.403Z,9.45
2023-04-23T21:21:10.842Z,10.63
2023-04-23T21:23:37.202Z,11.80
2023-04-23T21:26:03.681Z,10.75
2023-04-23T21:28:31.786Z,10.83
2023-04-23T21:31:00.499Z,10.65
2023-04-23T21:33:26.891Z,9.63
2023-04-23T21:35:53.807Z,11.80
2023-04-23T21:38:20.285Z,10.10
2023-04-23T21:40:46.691Z,11.90
2023-04-23T21:43:13.235Z,11.05
2023-04-23T21:45:39.618Z,13.43
2023-04-23T21:48:06.041Z,12.55
2023-04-23T21:50:33.177Z,12.50
2023-04-23T21:52:59.836Z,11.77
2023-04-23T21:55:27.166Z,11.57
2023-04-23T21:58:00.457Z,12.23
2023-04-23T22:00:32.961Z,13.07
2023-04-23T22:02:59.658Z,11.88
2023-04-23T22:05:26.499Z,12.90
2023-04-23T22:07:55.438Z,12.52
2023-04-23T22:10:22.369Z,11.57
2023-04-23T22:12:49.219Z,9.85
2023-04-23T22:15:16.471Z,12.60
2023-04-23T22:17:43.619Z,10.07
2023-04-23T22:20:10.704Z,10.75
2023-04-23T22:22:37.719Z,11.55
2023-04-23T22:25:04.872Z,12.45
2023-04-23T22:27:32.390Z,15.20
2023-04-23T22:30:00.171Z,13.80
2023-04-23T22:32:26.762Z,13.65
2023-04-23T22:34:53.268Z,14.93
2023-04-23T22:37:20.002Z,14.57
2023-04-23T22:39:46.591Z,14.13
2023-04-23T22:42:12.943Z,13.77
2023-04-23T22:44:39.306Z,12.57
2023-04-23T22:47:05.702Z,13.60
2023-04-23T22:49:32.065Z,12.52
2023-04-23T22:51:58.493Z,12.10
2023-04-23T22:54:25.046Z,11.67
2023-04-23T22:56:51.800Z,10.18
2023-04-23T22:59:18.152Z,10.93
2023-04-23T23:01:44.735Z,10.80
2023-04-23T23:04:11.156Z,6.07
2023-04-23T23:06:37.544Z,10.13
2023-04-23T23:09:03.908Z,11.80
2023-04-23T23:11:30.283Z,12.52
2023-04-23T23:13:56.691Z,12.80
2023-04-23T23:16:23.408Z,14.85
2023-04-23T23:18:49.764Z,15.13
2023-04-23T23:21:16.122Z,17.70
2023-04-23T23:23:42.637Z,18.23
2023-04-23T23:26:09.140Z,14.02
2023-04-23T23:28:35.494Z,17.00
2023-04-23T23:31:01.970Z,20.23
2023-04-23T23:33:28.426Z,15.98
2023-04-23T23:35:55.511Z,16.48
2023-04-23T23:38:22.065Z,17.42
2023-04-23T23:40:48.450Z,11.85
2023-04-23T23:43:14.799Z,11.77
2023-04-23T23:45:41.162Z,6.82
2023-04-23T23:48:07.565Z,11.95
2023-04-23T23:50:34.023Z,12.13
2023-04-23T23:53:00.433Z,9.23
2023-04-23T23:55:26.963Z,7.90
2023-04-23T23:57:53.316Z,10.43
